Time;durP1;ratioP1;P1;durP2;ratioP2;P2;SDS_P1;SDS_P2;PMS_P1;PMS_P2;Temp;Humidity;BMP_temperature;BMP_pressure;BME280_temperature;BME280_humidity;BME280_pressure;Samples;Min_cycle;Max_cycle;Signal;HPM_P1;HPM_P2
2021/01/11 00:02:10;;;;;;;16.67;13.03;;;-1.50;99.90;;;;;;5069920;28;20196;-57
2021/01/11 00:04:40;;;;;;;17.20;12.83;;;-1.70;99.90;;;;;;5064464;28;20727;-56
2021/01/11 00:07:09;;;;;;;21.25;13.80;;;-1.80;99.90;;;;;;5063821;28;20261;-58
2021/01/11 00:09:34;;;;;;;19.50;13.60;;;-1.80;99.90;;;;;;5070616;28;20222;-59
2021/01/11 00:12:00;;;;;;;25.40;12.77;;;-2.00;99.90;;;;;;5071180;28;20190;-58
2021/01/11 00:14:25;;;;;;;19.50;12.70;;;-2.00;99.90;;;;;;5061917;28;20185;-57
2021/01/11 00:16:51;;;;;;;19.70;13.30;;;-2.00;99.90;;;;;;5059613;28;20217;-57
2021/01/11 00:19:17;;;;;;;20.10;13.65;;;-1.70;99.90;;;;;;5067825;28;20307;-58
2021/01/11 00:21:46;;;;;;;19.10;13.60;;;-1.80;99.90;;;;;;5065882;28;20315;-58
2021/01/11 00:24:12;;;;;;;19.98;13.38;;;-2.00;99.90;;;;;;5061166;28;20435;-57
2021/01/11 00:26:37;;;;;;;19.83;12.30;;;-2.00;99.90;;;;;;5070910;28;20198;-57
2021/01/11 00:29:03;;;;;;;20.20;13.50;;;-1.90;99.90;;;;;;5064406;28;20624;-58
2021/01/11 00:31:28;;;;;;;20.57;13.27;;;-1.80;99.90;;;;;;5070878;28;20178;-58
2021/01/11 00:33:54;;;;;;;18.90;12.50;;;-1.80;99.90;;;;;;5068778;28;20213;-58
2021/01/11 00:36:20;;;;;;;17.80;11.83;;;-2.00;99.90;;;;;;5056403;28;20191;-58
2021/01/11 00:38:47;;;;;;;19.92;11.77;;;-2.00;99.90;;;;;;5070035;28;20296;-58
2021/01/11 00:41:22;;;;;;;19.90;12.38;;;-2.70;99.90;;;;;;5070455;28;20186;-58
2021/01/11 00:43:51;;;;;;;18.80;13.00;;;-2.00;99.90;;;;;;5055658;28;20540;-58
2021/01/11 00:46:29;;;;;;;19.30;13.35;;;-1.80;99.90;;;;;;5069209;28;20266;-58
2021/01/11 00:48:56;;;;;;;17.02;12.07;;;-1.90;99.90;;;;;;5070023;28;20266;-57
2021/01/11 00:51:22;;;;;;;16.85;12.20;;;-2.10;99.90;;;;;;5067345;28;20746;-58
2021/01/11 00:53:48;;;;;;;19.05;13.02;;;-1.90;99.90;;;;;;5060395;28;20178;-58
2021/01/11 00:56:19;;;;;;;18.65;13.10;;;-2.10;99.90;;;;;;5057989;28;20268;-58
2021/01/11 00:58:45;;;;;;;18.05;12.70;;;-2.10;99.90;;;;;;5063206;28;20225;-58
2021/01/11 01:01:13;;;;;;;20.85;14.07;;;-2.20;99.90;;;;;;5070183;28;20795;-58
2021/01/11 01:03:40;;;;;;;20.20;13.10;;;-2.10;99.90;;;;;;5067840;28;20190;-56
2021/01/11 01:06:07;;;;;;;19.08;12.80;;;-2.10;99.90;;;;;;5069388;28;20181;-57
2021/01/11 01:08:33;;;;;;;19.58;12.80;;;-1.90;99.90;;;;;;5064377;28;20692;-57
2021/01/11 01:10:59;;;;;;;18.90;12.13;;;-1.90;99.90;;;;;;5064973;28;20185;-58
2021/01/11 01:13:25;;;;;;;16.70;12.10;;;-1.60;99.90;;;;;;5065809;28;20643;-58
2021/01/11 01:15:50;;;;;;;21.07;13.43;;;-2.10;99.90;;;;;;5065397;28;21007;-58
2021/01/11 01:18:16;;;;;;;19.10;13.23;;;-2.10;99.90;;;;;;5067104;28;20486;-57
2021/01/11 01:20:42;;;;;;;19.30;12.50;;;-2.20;99.90;;;;;;5059954;28;20217;-59
2021/01/11 01:23:07;;;;;;;18.30;13.53;;;-2.40;99.90;;;;;;5066388;28;20617;-56
2021/01/11 01:25:33;;;;;;;20.60;13.70;;;-2.90;99.90;;;;;;5063276;28;20177;-57
2021/01/11 01:27:58;;;;;;;18.40;12.70;;;-2.90;99.90;;;;;;5070176;28;20287;-57
2021/01/11 01:30:24;;;;;;;18.17;12.63;;;-2.20;99.90;;;;;;5069463;28;20285;-57
2021/01/11 01:32:50;;;;;;;18.63;12.93;;;-2.40;99.90;;;;;;5066407;28;20188;-58
2021/01/11 01:35:16;;;;;;;17.57;11.90;;;-2.30;99.90;;;;;;5063816;28;20498;-58
2021/01/11 01:37:41;;;;;;;19.37;11.87;;;-2.40;99.90;;;;;;5064278;28;20557;-58
2021/01/11 01:40:08;;;;;;;15.20;11.83;;;-2.80;99.90;;;;;;5060888;28;20213;-58
2021/01/11 01:42:34;;;;;;;21.83;12.80;;;-2.40;99.90;;;;;;5058939;28;20186;-58
2021/01/11 01:45:02;;;;;;;20.63;12.83;;;-2.30;99.90;;;;;;5059873;28;20192;-58
2021/01/11 01:47:29;;;;;;;17.38;12.68;;;-2.30;99.90;;;;;;5069978;28;20474;-58
2021/01/11 01:49:55;;;;;;;17.00;12.40;;;-2.40;99.90;;;;;;5059710;28;20193;-58
2021/01/11 01:52:21;;;;;;;18.42;12.30;;;-2.50;99.90;;;;;;5055611;28;20600;-58
2021/01/11 01:54:49;;;;;;;19.83;12.10;;;-2.70;99.90;;;;;;5059151;28;20195;-58
2021/01/11 01:57:14;;;;;;;18.23;13.05;;;-2.60;99.90;;;;;;5063546;28;20498;-57
2021/01/11 01:59:43;;;;;;;18.00;11.87;;;-3.30;99.90;;;;;;5069103;28;20217;-59
2021/01/11 02:02:14;;;;;;;15.30;10.82;;;-3.20;99.90;;;;;;5072654;28;20182;-58
2021/01/11 02:04:40;;;;;;;19.30;11.52;;;-2.50;99.90;;;;;;5057329;28;20182;-57
2021/01/11 02:07:25;;;;;;;18.13;11.73;;;-2.60;99.90;;;;;;5059663;28;20188;-58
2021/01/11 02:10:22;;;;;;;16.67;11.27;;;-2.60;99.90;;;;;;5066919;28;20814;-59
2021/01/11 02:13:12;;;;;;;18.20;11.68;;;-2.40;99.90;;;;;;5060100;28;20198;-58
2021/01/11 02:16:02;;;;;;;17.23;11.45;;;-2.60;99.90;;;;;;5065009;28;20682;-58
2021/01/11 02:18:54;;;;;;;14.52;11.13;;;-2.50;99.90;;;;;;5057388;28;20224;-58
2021/01/11 02:21:45;;;;;;;14.23;10.35;;;-2.80;99.90;;;;;;5068501;28;20280;-58
2021/01/11 02:24:48;;;;;;;19.02;11.50;;;-2.80;99.90;;;;;;5056042;28;20543;-58
2021/01/11 02:27:16;;;;;;;17.25;11.23;;;-2.80;99.90;;;;;;5068865;28;20181;-58
2021/01/11 02:30:16;;;;;;;18.73;11.98;;;-2.90;99.90;;;;;;5068279;28;20195;-58
2021/01/11 02:32:52;;;;;;;18.70;12.60;;;-2.70;99.90;;;;;;5061940;28;20191;-58
2021/01/11 02:35:19;;;;;;;16.20;11.88;;;-2.70;99.90;;;;;;5058620;28;20604;-58
2021/01/11 02:37:46;;;;;;;18.83;12.50;;;-2.80;99.90;;;;;;5067141;28;20205;-57
2021/01/11 02:40:12;;;;;;;16.52;11.50;;;-2.90;99.90;;;;;;5067956;28;20299;-57
2021/01/11 02:42:38;;;;;;;17.13;11.97;;;-2.80;99.90;;;;;;5064797;28;20263;-58
2021/01/11 02:45:08;;;;;;;18.90;11.05;;;-3.10;99.90;;;;;;5048505;28;20436;-58
2021/01/11 02:48:13;;;;;;;21.13;12.57;;;-2.80;99.90;;;;;;5063009;28;20197;-56
2021/01/11 02:50:59;;;;;;;19.45;11.98;;;-2.90;99.90;;;;;;5029006;28;20565;-58
2021/01/11 02:53:33;;;;;;;17.20;11.52;;;-2.90;99.90;;;;;;5038499;28;20204;-56
2021/01/11 02:56:03;;;;;;;16.50;11.73;;;-3.00;99.90;;;;;;5043902;28;20681;-58
2021/01/11 02:58:47;;;;;;;20.45;11.98;;;-3.20;99.90;;;;;;5067905;28;20738;-58
2021/01/11 03:01:16;;;;;;;15.75;10.90;;;-3.10;99.90;;;;;;5068278;28;20211;-58
2021/01/11 03:03:46;;;;;;;13.77;9.77;;;-2.90;99.90;;;;;;5067279;28;20170;-58
2021/01/11 03:06:12;;;;;;;17.38;11.90;;;-3.00;99.90;;;;;;5064272;28;20178;-58
2021/01/11 03:08:38;;;;;;;17.23;11.60;;;-3.00;99.90;;;;;;5066920;28;20201;-58
2021/01/11 03:11:04;;;;;;;16.33;11.33;;;-3.20;99.90;;;;;;5067474;28;20181;-58
2021/01/11 03:13:29;;;;;;;13.43;10.03;;;-3.10;99.90;;;;;;5067156;28;20185;-56
2021/01/11 03:15:55;;;;;;;17.43;11.27;;;-3.10;99.90;;;;;;5069161;28;20185;-58
2021/01/11 03:18:21;;;;;;;20.40;12.53;;;-3.20;99.90;;;;;;5067875;28;20865;-58
2021/01/11 03:20:46;;;;;;;20.03;13.47;;;-3.20;99.90;;;;;;5063526;28;20516;-58
2021/01/11 03:23:12;;;;;;;16.83;11.23;;;-3.20;99.90;;;;;;5072054;28;20213;-56
2021/01/11 03:25:40;;;;;;;19.87;11.57;;;-3.30;99.90;;;;;;5068932;28;20184;-58
2021/01/11 03:28:05;;;;;;;18.42;12.35;;;-3.20;99.90;;;;;;5071527;28;20243;-57
2021/01/11 03:30:31;;;;;;;15.77;10.87;;;-3.20;99.90;;;;;;5071352;28;20193;-57
2021/01/11 03:32:57;;;;;;;16.37;11.17;;;-3.30;99.90;;;;;;5056197;28;20181;-57
2021/01/11 03:35:22;;;;;;;15.60;9.93;;;-3.60;99.90;;;;;;5062470;28;20189;-57
2021/01/11 03:37:48;;;;;;;17.20;11.30;;;-3.10;99.90;;;;;;5069715;28;20212;-57
2021/01/11 03:40:14;;;;;;;18.03;10.63;;;-3.30;99.90;;;;;;5062413;28;20221;-57
2021/01/11 03:42:39;;;;;;;18.30;10.97;;;-3.20;99.90;;;;;;5062101;28;20189;-57
2021/01/11 03:45:07;;;;;;;17.17;11.40;;;-3.20;99.90;;;;;;5063728;28;20177;-57
2021/01/11 03:47:33;;;;;;;15.45;10.25;;;-2.90;99.90;;;;;;5070771;28;20223;-57
2021/01/11 03:49:59;;;;;;;18.17;11.90;;;-2.90;99.90;;;;;;5072863;28;20178;-57
2021/01/11 03:52:25;;;;;;;13.93;9.90;;;-3.40;99.90;;;;;;5071397;28;20208;-57
2021/01/11 03:54:51;;;;;;;16.83;10.70;;;-3.10;99.90;;;;;;5055811;28;20189;-57
2021/01/11 03:57:17;;;;;;;18.58;11.95;;;-3.30;99.90;;;;;;5069042;28;20196;-57
2021/01/11 03:59:43;;;;;;;17.87;11.67;;;-3.40;99.90;;;;;;5065979;28;20577;-57
2021/01/11 04:02:09;;;;;;;17.47;11.00;;;-3.30;99.90;;;;;;5071166;28;20446;-57
2021/01/11 04:04:34;;;;;;;16.13;10.73;;;-3.20;99.90;;;;;;5057302;28;20177;-57
2021/01/11 04:07:00;;;;;;;17.40;10.87;;;-3.10;99.90;;;;;;5068493;28;20184;-57
2021/01/11 04:09:25;;;;;;;18.13;10.33;;;-3.10;99.90;;;;;;5068680;28;20883;-57
2021/01/11 04:11:51;;;;;;;16.67;11.67;;;-3.10;99.90;;;;;;5056990;28;20193;-57
2021/01/11 04:14:18;;;;;;;16.00;10.05;;;-3.30;99.90;;;;;;5070401;28;20324;-57
2021/01/11 04:16:44;;;;;;;15.35;10.85;;;-3.20;99.90;;;;;;5056474;28;20205;-58
2021/01/11 04:19:10;;;;;;;16.87;11.40;;;-3.20;99.90;;;;;;5070488;28;20266;-57
2021/01/11 04:21:37;;;;;;;16.00;10.50;;;-3.30;99.90;;;;;;5070839;28;20177;-57
2021/01/11 04:24:03;;;;;;;18.08;11.43;;;-3.30;99.90;;;;;;5066875;28;20173;-57
2021/01/11 04:26:29;;;;;;;15.82;10.60;;;-3.30;99.90;;;;;;5070851;28;20189;-57
2021/01/11 04:28:55;;;;;;;18.33;10.80;;;-3.30;99.90;;;;;;5071815;28;20213;-57
2021/01/11 04:31:21;;;;;;;17.13;11.57;;;-3.40;99.90;;;;;;5068337;28;20440;-57
2021/01/11 04:33:47;;;;;;;17.85;9.98;;;-3.40;99.90;;;;;;5063386;28;20181;-58
2021/01/11 04:36:12;;;;;;;15.30;10.63;;;-3.10;99.90;;;;;;5068218;28;20177;-57
2021/01/11 04:38:38;;;;;;;15.80;10.60;;;-3.30;99.90;;;;;;5070377;28;20960;-57
2021/01/11 04:41:04;;;;;;;15.83;10.47;;;-3.30;99.90;;;;;;5057340;28;20258;-57
2021/01/11 04:43:35;;;;;;;15.75;10.60;;;-3.40;99.90;;;;;;5070407;28;20232;-57
2021/01/11 04:46:01;;;;;;;16.92;10.10;;;-3.20;99.90;;;;;;5057296;28;20185;-58
2021/01/11 04:48:27;;;;;;;13.52;10.20;;;-3.20;99.90;;;;;;5069973;28;20240;-58
2021/01/11 04:50:53;;;;;;;15.90;11.05;;;-3.30;99.90;;;;;;5069775;28;20621;-58
2021/01/11 04:53:20;;;;;;;16.47;11.20;;;-4.10;99.90;;;;;;5059865;28;20196;-57
2021/01/11 04:55:46;;;;;;;13.35;9.25;;;-3.20;99.90;;;;;;5067287;28;20599;-57
2021/01/11 04:58:12;;;;;;;14.20;9.90;;;-3.20;99.90;;;;;;5069984;28;20212;-57
2021/01/11 05:00:41;;;;;;;13.35;8.90;;;-3.50;99.90;;;;;;5065748;28;20300;-58
2021/01/11 05:03:09;;;;;;;15.20;9.88;;;-3.50;99.90;;;;;;5070071;28;20177;-57
2021/01/11 05:05:37;;;;;;;13.75;9.95;;;-3.60;99.90;;;;;;5056705;28;20646;-56
2021/01/11 05:08:07;;;;;;;15.77;11.02;;;-3.40;99.90;;;;;;5057275;28;20210;-58
2021/01/11 05:10:35;;;;;;;16.30;10.68;;;-3.30;99.90;;;;;;5068725;28;20182;-57
2021/01/11 05:13:08;;;;;;;16.40;10.75;;;-3.60;99.90;;;;;;5075785;28;20181;-57
2021/01/11 05:15:36;;;;;;;16.08;10.40;;;-3.50;99.90;;;;;;5055233;28;20565;-58
2021/01/11 05:18:13;;;;;;;14.75;9.88;;;-4.10;99.90;;;;;;5064053;28;20209;-57
2021/01/11 05:20:38;;;;;;;16.95;10.50;;;-3.70;99.90;;;;;;5060231;28;20666;-57
2021/01/11 05:23:12;;;;;;;14.40;10.47;;;-3.60;99.90;;;;;;5067337;28;20186;-57
2021/01/11 05:25:39;;;;;;;17.10;10.32;;;-3.60;99.90;;;;;;5060149;28;20185;-58
2021/01/11 05:28:18;;;;;;;15.35;9.57;;;-3.40;99.90;;;;;;5069232;28;20197;-57
2021/01/11 05:30:46;;;;;;;16.38;10.07;;;-3.40;99.90;;;;;;5066194;28;20173;-57
2021/01/11 05:33:23;;;;;;;15.05;9.88;;;-3.60;99.90;;;;;;5050976;28;20186;-58
2021/01/11 05:36:02;;;;;;;16.42;10.90;;;-3.80;99.90;;;;;;5065587;28;20174;-57
2021/01/11 05:38:36;;;;;;;16.67;9.98;;;-3.80;99.90;;;;;;5064213;28;20205;-57
2021/01/11 05:41:13;;;;;;;15.23;9.68;;;-3.80;99.90;;;;;;5056736;28;20193;-57
2021/01/11 05:43:42;;;;;;;17.13;11.45;;;-3.40;99.90;;;;;;5069790;28;20260;-57
2021/01/11 05:46:25;;;;;;;18.08;11.43;;;-4.00;99.90;;;;;;5063974;28;20182;-57
2021/01/11 05:49:02;;;;;;;13.98;10.02;;;-3.40;99.90;;;;;;5062125;28;20212;-57
2021/01/11 05:51:30;;;;;;;15.57;10.70;;;-3.60;99.90;;;;;;5055826;28;20272;-57
2021/01/11 05:53:57;;;;;;;18.30;11.07;;;-3.50;99.90;;;;;;5048639;28;20276;-59
2021/01/11 05:56:23;;;;;;;16.10;10.90;;;-3.50;99.90;;;;;;5047142;28;20201;-58
2021/01/11 05:59:09;;;;;;;15.88;10.45;;;-4.20;99.90;;;;;;5061908;28;20193;-58
2021/01/11 06:01:37;;;;;;;13.13;9.40;;;-3.50;99.90;;;;;;5049231;28;20208;-58
2021/01/11 06:04:05;;;;;;;16.17;10.55;;;-3.80;99.90;;;;;;5065790;28;20235;-58
2021/01/11 06:06:31;;;;;;;13.05;9.98;;;-3.60;99.90;;;;;;5065159;28;20565;-58
2021/01/11 06:08:57;;;;;;;17.70;12.00;;;-3.60;99.90;;;;;;5066630;28;20204;-58
2021/01/11 06:11:27;;;;;;;17.90;11.10;;;-3.60;99.90;;;;;;5068618;28;20485;-59
2021/01/11 06:13:56;;;;;;;16.05;11.85;;;-3.50;99.90;;;;;;5069598;28;20526;-58
2021/01/11 06:16:24;;;;;;;18.98;11.48;;;-3.60;99.90;;;;;;5066490;28;20204;-59
2021/01/11 06:18:52;;;;;;;20.65;12.27;;;-3.50;99.90;;;;;;5054329;28;20858;-58
2021/01/11 06:21:21;;;;;;;19.40;11.60;;;-3.40;99.90;;;;;;5063837;28;20208;-58
2021/01/11 06:23:48;;;;;;;19.08;11.57;;;-3.60;99.90;;;;;;5067291;28;20259;-58
2021/01/11 06:26:32;;;;;;;16.50;11.13;;;-4.10;99.90;;;;;;5062772;28;20200;-58
2021/01/11 06:28:58;;;;;;;17.42;11.45;;;-3.70;99.90;;;;;;5055700;28;20240;-59
2021/01/11 06:31:29;;;;;;;20.20;12.00;;;-3.70;99.90;;;;;;5060527;28;20189;-59
2021/01/11 06:33:56;;;;;;;31.08;16.70;;;-3.80;99.90;;;;;;5058944;28;20811;-59
2021/01/11 06:36:30;;;;;;;16.88;10.55;;;-3.80;99.90;;;;;;5067230;28;20205;-59
2021/01/11 06:38:56;;;;;;;19.33;12.50;;;-3.80;99.90;;;;;;5067194;28;20669;-58
2021/01/11 06:41:27;;;;;;;19.67;11.60;;;-3.70;99.90;;;;;;5069400;28;20191;-59
2021/01/11 06:44:01;;;;;;;18.48;12.40;;;-3.80;99.90;;;;;;5068895;28;20430;-59
2021/01/11 06:46:30;;;;;;;21.33;11.40;;;-3.30;99.90;;;;;;5080945;28;20204;-59
2021/01/11 06:49:03;;;;;;;18.85;10.73;;;-3.60;99.90;;;;;;5067291;28;20205;-59
2021/01/11 06:51:39;;;;;;;18.92;12.05;;;-3.50;99.90;;;;;;5067930;28;20622;-60
2021/01/11 06:54:16;;;;;;;20.30;13.60;;;-2.80;99.90;;;;;;5067187;28;20189;-58
2021/01/11 06:56:43;;;;;;;17.23;12.10;;;-2.40;99.90;;;;;;5069130;28;20169;-59
2021/01/11 06:59:13;;;;;;;21.90;12.75;;;-2.20;99.90;;;;;;5068564;28;20206;-59
2021/01/11 07:01:42;;;;;;;18.58;11.48;;;-1.90;99.90;;;;;;5054542;28;20185;-59
2021/01/11 07:04:09;;;;;;;16.27;10.80;;;-2.70;99.90;;;;;;5073816;28;20548;-58
2021/01/11 07:06:43;;;;;;;15.50;10.82;;;-2.70;99.90;;;;;;5073126;28;20242;-58
2021/01/11 07:09:19;;;;;;;16.33;11.48;;;-2.90;99.90;;;;;;5067699;28;20312;-59
2021/01/11 07:11:50;;;;;;;18.92;12.18;;;-3.20;99.90;;;;;;5067533;28;20191;-59
2021/01/11 07:14:23;;;;;;;20.58;12.68;;;-3.10;99.90;;;;;;5067330;28;20177;-60
2021/01/11 07:16:52;;;;;;;19.48;11.45;;;-3.80;99.90;;;;;;5067471;28;20209;-59
2021/01/11 07:19:43;;;;;;;20.23;12.20;;;-3.30;99.90;;;;;;5066913;28;20719;-59
2021/01/11 07:22:12;;;;;;;17.00;11.40;;;-3.20;99.90;;;;;;5065963;28;20268;-60
2021/01/11 07:24:39;;;;;;;17.65;11.07;;;-3.20;99.90;;;;;;5061876;28;20187;-60
2021/01/11 07:27:05;;;;;;;20.23;11.50;;;-3.20;99.90;;;;;;5067688;28;20737;-60
2021/01/11 07:29:30;;;;;;;16.53;11.63;;;-3.20;99.90;;;;;;5067585;28;20497;-59
2021/01/11 07:31:56;;;;;;;19.90;12.70;;;-3.40;99.90;;;;;;5067191;28;20280;-59
2021/01/11 07:34:22;;;;;;;16.57;11.80;;;-3.20;99.90;;;;;;5067413;28;20631;-59
2021/01/11 07:36:50;;;;;;;16.80;11.67;;;-3.40;99.90;;;;;;5067719;28;20177;-59
2021/01/11 07:39:17;;;;;;;16.13;11.70;;;-3.10;99.90;;;;;;5079474;28;20490;-59
2021/01/11 07:41:50;;;;;;;18.23;11.85;;;-3.20;99.90;;;;;;5067421;28;20271;-59
2021/01/11 07:44:22;;;;;;;14.82;10.82;;;-2.40;99.90;;;;;;5053084;28;20189;-59
2021/01/11 07:47:08;;;;;;;16.30;10.77;;;-2.60;99.90;;;;;;5058306;28;20690;-59
2021/01/11 07:49:36;;;;;;;18.58;11.77;;;-2.60;99.90;;;;;;5062726;28;20698;-59
2021/01/11 07:52:10;;;;;;;14.23;10.57;;;-2.90;99.90;;;;;;5059868;28;20230;-58
2021/01/11 07:54:37;;;;;;;17.65;11.32;;;-2.90;99.90;;;;;;5067274;28;20646;-60
2021/01/11 07:57:08;;;;;;;17.55;10.90;;;-2.90;99.90;;;;;;5062422;28;20285;-58
2021/01/11 07:59:34;;;;;;;18.08;12.20;;;-3.10;99.90;;;;;;5056818;28;20209;-59
2021/01/11 08:02:02;;;;;;;16.73;10.90;;;-3.20;99.90;;;;;;5078186;28;20185;-60
2021/01/11 08:04:35;;;;;;;16.10;11.50;;;-3.00;99.90;;;;;;5059025;28;20177;-60
2021/01/11 08:07:04;;;;;;;17.05;11.85;;;-2.80;99.90;;;;;;5062832;28;20186;-59
2021/01/11 08:09:30;;;;;;;18.27;12.18;;;-2.80;99.90;;;;;;5067583;28;20209;-59
2021/01/11 08:12:15;;;;;;;15.60;11.70;;;-2.90;99.90;;;;;;5058888;28;20243;-60
2021/01/11 08:14:43;;;;;;;18.05;12.38;;;-2.80;99.90;;;;;;5059980;28;20432;-60
2021/01/11 08:17:13;;;;;;;16.77;11.30;;;-3.10;99.90;;;;;;5064711;28;20272;-59
2021/01/11 08:19:42;;;;;;;21.83;13.95;;;-2.90;99.90;;;;;;5070165;28;20608;-59
2021/01/11 08:22:10;;;;;;;18.40;13.63;;;-2.80;99.90;;;;;;5070326;28;20174;-59
2021/01/11 08:24:36;;;;;;;22.70;14.05;;;-3.40;99.90;;;;;;5069696;28;20219;-60
2021/01/11 08:27:17;;;;;;;18.98;12.10;;;-3.20;99.90;;;;;;5070454;28;20276;-59
2021/01/11 08:29:43;;;;;;;18.33;12.52;;;-2.80;99.90;;;;;;5065720;28;20197;-58
2021/01/11 08:32:11;;;;;;;18.30;11.80;;;-2.70;99.90;;;;;;5057765;28;20618;-58
2021/01/11 08:34:37;;;;;;;27.02;14.75;;;-2.40;99.90;;;;;;5065018;28;20844;-58
2021/01/11 08:37:21;;;;;;;18.83;13.10;;;-2.60;99.90;;;;;;5077290;28;20314;-59
2021/01/11 08:39:57;;;;;;;18.90;13.02;;;-2.60;99.90;;;;;;5075214;28;20219;-59
2021/01/11 08:42:25;;;;;;;17.70;11.80;;;-2.60;99.90;;;;;;5064860;28;20189;-59
2021/01/11 08:44:50;;;;;;;19.13;12.73;;;-2.70;99.90;;;;;;5069723;28;20177;-60
2021/01/11 08:47:32;;;;;;;19.90;12.30;;;-2.40;99.90;;;;;;5069160;28;20223;-59
2021/01/11 08:50:04;;;;;;;18.17;12.02;;;-2.50;99.90;;;;;;5070459;28;20478;-58
2021/01/11 08:52:34;;;;;;;21.65;14.10;;;-2.60;99.90;;;;;;5069699;28;20188;-58
2021/01/11 08:55:10;;;;;;;19.45;12.80;;;-2.90;99.90;;;;;;5074844;28;20177;-60
2021/01/11 08:57:36;;;;;;;20.92;14.65;;;-2.40;99.90;;;;;;5064345;28;20189;-59
2021/01/11 09:00:07;;;;;;;19.90;13.03;;;-1.50;99.90;;;;;;5069157;28;20284;-59
2021/01/11 09:02:33;;;;;;;21.95;13.48;;;-1.50;99.90;;;;;;5077258;28;20496;-59
2021/01/11 09:05:22;;;;;;;17.67;11.70;;;-1.60;99.90;;;;;;5061907;28;20182;-59
2021/01/11 09:07:51;;;;;;;17.77;12.30;;;-1.80;99.90;;;;;;5060168;28;20198;-59
2021/01/11 09:10:31;;;;;;;20.05;12.40;;;-1.50;99.90;;;;;;5062413;28;20213;-61
2021/01/11 09:13:15;;;;;;;20.80;12.02;;;-1.70;99.90;;;;;;5056698;28;20198;-60
2021/01/11 09:15:40;;;;;;;16.52;11.88;;;-1.60;99.90;;;;;;5080279;28;20207;-59
2021/01/11 09:18:07;;;;;;;18.27;11.60;;;-1.20;99.90;;;;;;5048847;28;20770;-59
2021/01/11 09:20:41;;;;;;;17.33;11.88;;;-1.40;99.90;;;;;;5055278;28;20213;-60
2021/01/11 09:23:07;;;;;;;21.42;13.15;;;-1.10;99.90;;;;;;5053370;28;20672;-59
2021/01/11 09:25:37;;;;;;;16.02;11.60;;;-0.80;99.90;;;;;;5050866;28;20205;-60
2021/01/11 09:28:05;;;;;;;20.98;10.90;;;-0.70;99.90;;;;;;5057646;28;20722;-60
2021/01/11 09:30:31;;;;;;;16.00;11.20;;;-1.10;99.90;;;;;;5069148;28;20189;-59
2021/01/11 09:32:58;;;;;;;16.00;11.15;;;-0.10;99.90;;;;;;5080615;28;20181;-59
2021/01/11 09:35:24;;;;;;;14.70;10.65;;;-0.30;99.20;;;;;;5066867;28;20238;-60
2021/01/11 09:37:52;;;;;;;17.35;10.98;;;0.00;98.80;;;;;;5069060;28;20864;-60
2021/01/11 09:40:19;;;;;;;19.05;14.82;;;0.10;98.10;;;;;;5069386;28;20197;-60
2021/01/11 09:42:46;;;;;;;17.73;12.52;;;0.40;97.90;;;;;;5068238;28;20231;-60
2021/01/11 09:45:12;;;;;;;17.35;11.30;;;0.60;96.80;;;;;;5069115;28;20235;-60
2021/01/11 09:47:38;;;;;;;15.73;11.88;;;0.70;97.10;;;;;;5055508;28;20200;-61
2021/01/11 09:50:04;;;;;;;15.40;11.40;;;1.10;96.50;;;;;;5068080;28;20188;-61
2021/01/11 09:52:31;;;;;;;17.45;11.63;;;1.40;96.00;;;;;;5068811;28;20180;-60
2021/01/11 09:54:56;;;;;;;15.27;10.98;;;1.60;94.70;;;;;;5069520;28;20181;-60
2021/01/11 09:57:22;;;;;;;16.87;11.30;;;1.60;94.70;;;;;;5068996;28;20200;-61
2021/01/11 09:59:48;;;;;;;15.70;11.07;;;1.30;94.30;;;;;;5078033;28;20221;-60
2021/01/11 10:02:13;;;;;;;15.60;10.97;;;1.20;94.10;;;;;;5049087;28;20307;-60
2021/01/11 10:04:39;;;;;;;15.60;11.87;;;1.50;94.10;;;;;;5067824;28;20287;-61
2021/01/11 10:07:06;;;;;;;15.40;11.63;;;1.10;94.20;;;;;;5081147;28;20514;-60
2021/01/11 10:09:33;;;;;;;15.77;11.38;;;1.00;95.10;;;;;;5050183;28;20618;-61
2021/01/11 10:12:01;;;;;;;16.95;10.90;;;1.30;95.40;;;;;;5061896;28;20181;-60
2021/01/11 10:14:28;;;;;;;13.88;11.05;;;1.60;94.40;;;;;;5067978;28;20755;-60
2021/01/11 10:16:54;;;;;;;17.02;11.50;;;2.10;93.10;;;;;;5064069;28;20181;-59
2021/01/11 10:19:22;;;;;;;18.80;13.37;;;2.10;95.10;;;;;;5068222;28;20556;-60
2021/01/11 10:21:48;;;;;;;17.02;11.20;;;1.80;94.50;;;;;;5067846;28;20514;-58
2021/01/11 10:24:16;;;;;;;15.80;12.07;;;1.40;94.50;;;;;;5055341;28;20180;-59
2021/01/11 10:26:49;;;;;;;15.15;11.00;;;1.50;95.30;;;;;;5067598;28;20207;-59
2021/01/11 10:29:15;;;;;;;14.18;10.48;;;1.50;94.60;;;;;;5065320;28;20203;-60
2021/01/11 10:31:41;;;;;;;14.02;9.30;;;2.00;94.40;;;;;;5053254;28;20189;-60
2021/01/11 10:34:08;;;;;;;12.53;9.30;;;2.70;92.80;;;;;;5061200;28;20691;-60
2021/01/11 10:36:41;;;;;;;14.35;10.57;;;3.20;92.00;;;;;;5068126;28;20844;-60
2021/01/11 10:39:07;;;;;;;15.75;10.75;;;3.80;91.20;;;;;;5064612;28;20207;-59
2021/01/11 10:41:33;;;;;;;14.43;10.30;;;3.40;90.50;;;;;;5056415;28;20180;-60
2021/01/11 10:43:58;;;;;;;14.47;10.27;;;3.20;92.50;;;;;;5067035;28;20204;-60
2021/01/11 10:46:24;;;;;;;15.30;10.20;;;3.90;90.50;;;;;;5062986;28;20248;-60
2021/01/11 10:48:50;;;;;;;13.83;10.00;;;3.80;88.50;;;;;;5053274;28;20210;-57
2021/01/11 10:51:16;;;;;;;14.03;10.83;;;4.00;86.30;;;;;;5066200;28;20196;-60
2021/01/11 10:53:43;;;;;;;16.10;10.00;;;4.60;85.40;;;;;;5054791;28;20674;-60
2021/01/11 10:56:10;;;;;;;16.73;11.68;;;4.90;83.60;;;;;;5064857;28;20533;-59
2021/01/11 10:58:35;;;;;;;16.23;11.57;;;4.70;83.60;;;;;;5063136;28;20613;-59
2021/01/11 11:01:05;;;;;;;14.03;10.20;;;4.90;82.70;;;;;;5056256;28;20211;-61
2021/01/11 11:03:30;;;;;;;12.55;9.07;;;5.80;81.80;;;;;;5061626;28;20645;-60
2021/01/11 11:05:56;;;;;;;12.90;10.10;;;6.40;76.80;;;;;;5067724;28;20184;-59
2021/01/11 11:08:21;;;;;;;13.00;8.30;;;6.10;74.90;;;;;;5068121;28;20196;-60
2021/01/11 11:10:47;;;;;;;12.37;9.97;;;5.70;75.70;;;;;;5063918;28;20178;-60
2021/01/11 11:13:13;;;;;;;11.47;9.03;;;4.80;76.60;;;;;;5047435;28;20487;-60
2021/01/11 11:15:42;;;;;;;12.67;9.77;;;4.40;78.20;;;;;;5059022;28;20272;-59
2021/01/11 11:18:08;;;;;;;16.67;11.30;;;4.10;80.40;;;;;;5066894;28;20213;-59
2021/01/11 11:20:33;;;;;;;15.43;10.93;;;3.20;82.60;;;;;;5049165;28;20643;-60
2021/01/11 11:22:59;;;;;;;22.63;10.73;;;2.80;85.60;;;;;;5060799;28;20181;-59
2021/01/11 11:25:25;;;;;;;16.00;12.30;;;2.60;87.20;;;;;;5067244;28;20268;-59
2021/01/11 11:27:50;;;;;;;18.60;11.33;;;2.50;88.80;;;;;;5067440;28;20193;-59
2021/01/11 11:30:16;;;;;;;13.27;10.27;;;2.70;88.90;;;;;;5067727;28;20940;-60
2021/01/11 11:32:46;;;;;;;17.35;11.57;;;2.40;89.40;;;;;;5065351;28;20263;-59
2021/01/11 11:35:13;;;;;;;16.42;10.05;;;2.60;90.20;;;;;;5059534;28;20197;-61
2021/01/11 11:37:38;;;;;;;15.32;11.18;;;2.50;90.20;;;;;;5061599;28;20234;-60
2021/01/11 11:40:05;;;;;;;19.20;11.37;;;2.40;90.20;;;;;;5067168;28;20736;-61
2021/01/11 11:42:35;;;;;;;17.85;10.52;;;2.60;90.70;;;;;;5070985;28;20185;-60
2021/01/11 11:45:01;;;;;;;15.75;10.88;;;2.50;90.90;;;;;;5071213;28;20181;-60
2021/01/11 11:47:30;;;;;;;13.90;10.95;;;2.50;91.30;;;;;;5057103;28;20201;-61
2021/01/11 11:49:55;;;;;;;19.92;11.82;;;1.20;90.30;;;;;;5070372;28;20337;-61
2021/01/11 11:52:21;;;;;;;17.50;10.90;;;1.60;92.40;;;;;;5070833;28;20176;-61
2021/01/11 11:54:47;;;;;;;16.63;10.20;;;1.60;92.60;;;;;;5064747;28;20266;-61
2021/01/11 11:57:12;;;;;;;11.90;9.50;;;1.90;92.60;;;;;;5077930;28;20183;-60
2021/01/11 11:59:38;;;;;;;14.83;9.47;;;1.90;91.70;;;;;;5057526;28;20274;-60
2021/01/11 12:02:04;;;;;;;17.70;10.97;;;1.80;91.50;;;;;;5065385;28;20199;-61
2021/01/11 12:04:29;;;;;;;12.70;8.80;;;2.10;91.40;;;;;;5070634;28;20433;-60
2021/01/11 12:06:56;;;;;;;11.57;8.00;;;1.50;90.70;;;;;;5057095;28;20227;-60
2021/01/11 12:09:21;;;;;;;11.48;8.95;;;1.80;90.30;;;;;;5070744;28;20232;-60
2021/01/11 12:11:52;;;;;;;14.30;10.40;;;2.50;90.40;;;;;;5075988;28;20250;-59
2021/01/11 12:14:18;;;;;;;12.43;9.85;;;2.30;90.30;;;;;;5070552;28;20177;-61
2021/01/11 12:16:48;;;;;;;12.03;9.17;;;2.60;90.50;;;;;;5065399;28;20204;-60
2021/01/11 12:19:14;;;;;;;11.70;9.45;;;2.40;89.80;;;;;;5071555;28;20197;-60
2021/01/11 12:21:39;;;;;;;12.30;9.47;;;2.50;89.60;;;;;;5071841;28;20177;-60
2021/01/11 12:24:09;;;;;;;11.37;8.53;;;2.50;90.20;;;;;;5070198;28;20439;-58
2021/01/11 12:26:43;;;;;;;12.75;9.77;;;2.40;90.00;;;;;;5070220;28;20481;-58
2021/01/11 12:29:09;;;;;;;12.05;10.10;;;2.50;89.60;;;;;;5059225;28;20194;-58
2021/01/11 12:31:35;;;;;;;14.07;9.32;;;2.60;89.40;;;;;;5061057;28;20185;-59
2021/01/11 12:34:01;;;;;;;15.18;9.80;;;2.90;89.00;;;;;;5059995;28;21641;-58
2021/01/11 12:36:28;;;;;;;14.98;9.73;;;3.00;89.30;;;;;;5070263;28;20188;-59
2021/01/11 12:38:56;;;;;;;16.20;11.35;;;3.10;89.30;;;;;;5072426;28;20216;-59
2021/01/11 12:41:23;;;;;;;13.52;9.50;;;3.10;88.90;;;;;;5070346;28;20696;-59